Time;durP1;ratioP1;P1;durP2;ratioP2;P2;SDS_P1;SDS_P2;PMS_P1;PMS_P2;Temp;Humidity;BMP_temperature;BMP_pressure;BME280_temperature;BME280_humidity;BME280_pressure;Samples;Min_cycle;Max_cycle;Signal;HPM_P1;HPM_P2
2020/12/06 00:02:48;;;;;;;61.08;35.95;;;;;;;3.66;73.89;98644.28;10423567;28;20096;-63
2020/12/06 00:07:50;;;;;;;62.97;37.30;;;;;;;3.83;73.92;98643.84;10422501;28;20042;-63
2020/12/06 00:12:51;;;;;;;55.65;35.72;;;;;;;3.84;73.41;98637.75;10422826;28;20049;-61
2020/12/06 00:17:52;;;;;;;51.95;35.55;;;;;;;3.53;74.01;98628.16;10422253;28;20055;-64
2020/12/06 00:22:53;;;;;;;54.17;36.20;;;;;;;3.64;74.26;98624.44;10422535;28;20403;-64
2020/12/06 00:27:54;;;;;;;41.83;32.25;;;;;;;3.69;73.31;98619.97;10421672;28;20046;-64
2020/12/06 00:32:55;;;;;;;41.88;32.85;;;;;;;3.39;74.26;98608.63;10421081;28;20533;-64
2020/12/06 00:37:57;;;;;;;52.33;36.53;;;;;;;3.42;74.63;98604.22;10421891;28;20049;-64
2020/12/06 00:42:58;;;;;;;52.15;36.70;;;;;;;3.49;74.39;98602.28;10421409;28;20054;-64
2020/12/06 00:47:59;;;;;;;51.05;35.92;;;;;;;3.21;73.64;98595.22;10420014;28;20045;-64
2020/12/06 00:53:01;;;;;;;50.60;37.78;;;;;;;3.27;75.18;98587.25;10421033;28;20198;-64
2020/12/06 00:58:03;;;;;;;56.67;38.72;;;;;;;3.50;74.62;98589.28;10420179;28;20128;-64
2020/12/06 01:03:04;;;;;;;46.55;37.15;;;;;;;3.32;74.91;98594.06;10421202;28;20049;-63
2020/12/06 01:08:06;;;;;;;52.28;36.67;;;;;;;3.08;75.83;98596.41;10420343;28;20415;-64
2020/12/06 01:13:07;;;;;;;45.45;35.92;;;;;;;3.21;74.84;98602.16;10418317;28;20049;-64
2020/12/06 01:18:08;;;;;;;46.22;35.97;;;;;;;3.11;74.75;98598.94;10418784;28;20041;-63
2020/12/06 01:23:09;;;;;;;45.53;35.28;;;;;;;3.29;74.42;98597.63;10419274;28;20053;-62
2020/12/06 01:28:11;;;;;;;41.08;33.90;;;;;;;2.99;74.54;98594.88;10419111;28;20080;-63
2020/12/06 01:33:12;;;;;;;44.75;34.85;;;;;;;2.89;75.35;98576.97;10418973;28;20049;-63
2020/12/06 01:38:13;;;;;;;42.63;33.58;;;;;;;2.81;74.92;98574.56;10419213;28;20443;-63
2020/12/06 01:43:14;;;;;;;44.78;35.40;;;;;;;2.92;75.01;98563.91;10418940;28;20498;-63
2020/12/06 01:48:15;;;;;;;47.40;35.17;;;;;;;3.14;75.36;98556.44;10417813;28;20037;-63
2020/12/06 01:53:17;;;;;;;47.20;36.40;;;;;;;3.19;75.15;98544.22;10417770;28;20048;-64
2020/12/06 01:58:18;;;;;;;45.63;35.58;;;;;;;3.06;75.06;98554.06;10419584;28;20040;-63
2020/12/06 02:03:19;;;;;;;47.35;36.42;;;;;;;3.13;75.29;98562.53;10417505;28;20054;-62
2020/12/06 02:08:20;;;;;;;40.95;34.50;;;;;;;2.91;75.39;98552.69;10417272;28;20494;-63
2020/12/06 02:13:21;;;;;;;50.60;37.03;;;;;;;3.20;75.25;98551.97;10418173;28;20060;-64
2020/12/06 02:18:23;;;;;;;49.47;36.88;;;;;;;3.02;75.49;98548.09;10418197;28;20103;-69
2020/12/06 02:23:24;;;;;;;39.60;33.78;;;;;;;2.87;75.20;98534.63;10418363;28;20057;-64
2020/12/06 02:28:25;;;;;;;46.30;35.60;;;;;;;2.89;75.58;98533.72;10416600;28;20073;-67
2020/12/06 02:33:26;;;;;;;46.25;35.60;;;;;;;2.85;75.93;98526.91;10416501;28;20068;-67
2020/12/06 02:38:27;;;;;;;46.22;34.88;;;;;;;2.99;75.80;98516.16;10416354;28;20048;-68
2020/12/06 02:43:28;;;;;;;37.35;32.42;;;;;;;2.75;75.70;98528.88;10417359;28;20384;-67
2020/12/06 02:48:29;;;;;;;43.63;35.05;;;;;;;2.76;75.95;98524.53;10414832;28;20060;-67
2020/12/06 02:53:31;;;;;;;36.33;31.55;;;;;;;2.80;75.43;98512.34;10416314;28;20041;-67
2020/12/06 02:58:32;;;;;;;47.95;36.90;;;;;;;3.14;75.88;98502.78;10416700;28;20399;-67
2020/12/06 03:03:33;;;;;;;45.58;34.85;;;;;;;2.91;75.57;98493.00;10417395;28;20042;-67
2020/12/06 03:08:37;;;;;;;46.35;36.15;;;;;;;2.83;76.30;98474.16;10416729;28;20388;-67
2020/12/06 03:13:38;;;;;;;40.75;33.03;;;;;;;2.77;75.85;98472.56;10414685;28;20128;-67
2020/12/06 03:18:39;;;;;;;42.00;33.45;;;;;;;2.81;76.11;98470.75;10416852;28;20037;-67
2020/12/06 03:23:41;;;;;;;40.72;33.42;;;;;;;2.70;76.20;98463.25;10414850;28;20061;-67
2020/12/06 03:28:42;;;;;;;40.78;34.45;;;;;;;2.74;76.68;98464.00;10415863;28;20056;-67
2020/12/06 03:33:43;;;;;;;41.42;31.50;;;;;;;2.80;75.90;98456.09;10415713;28;20124;-67
2020/12/06 03:38:44;;;;;;;34.45;30.90;;;;;;;2.66;75.99;98465.97;10417087;28;20049;-67
2020/12/06 03:43:45;;;;;;;45.10;33.92;;;;;;;2.71;76.67;98471.91;10423632;28;20049;-67
2020/12/06 03:48:46;;;;;;;47.97;35.63;;;;;;;2.76;76.80;98464.84;10423656;28;20045;-67
2020/12/06 03:53:47;;;;;;;37.08;32.13;;;;;;;2.68;76.27;98459.84;10422459;28;20045;-67
2020/12/06 03:58:48;;;;;;;38.20;31.70;;;;;;;3.00;75.99;98463.34;10421527;28;20088;-67
2020/12/06 04:03:51;;;;;;;40.92;32.22;;;;;;;2.82;76.16;98456.91;10422062;28;20045;-67
2020/12/06 04:08:53;;;;;;;33.45;29.35;;;;;;;2.75;76.32;98439.81;10422731;28;20049;-67
2020/12/06 04:13:54;;;;;;;31.23;28.27;;;;;;;3.11;75.85;98434.53;10422013;28;20101;-67
2020/12/06 04:18:55;;;;;;;29.85;26.92;;;;;;;2.87;75.99;98420.44;10422009;28;20111;-65
2020/12/06 04:23:56;;;;;;;32.65;28.27;;;;;;;3.07;76.29;98412.13;10421593;28;20136;-67
2020/12/06 04:28:57;;;;;;;31.73;28.33;;;;;;;2.90;76.82;98410.84;10421393;28;20060;-67
2020/12/06 04:33:58;;;;;;;34.75;31.08;;;;;;;3.06;76.93;98413.88;10422668;28;20072;-67
2020/12/06 04:38:59;;;;;;;32.85;29.33;;;;;;;3.27;76.56;98428.00;10421256;28;20431;-67
2020/12/06 04:44:01;;;;;;;31.67;28.27;;;;;;;3.18;76.24;98433.44;10421094;28;20073;-67
2020/12/06 04:49:05;;;;;;;33.67;30.20;;;;;;;3.03;76.92;98430.38;10420507;28;20124;-67
2020/12/06 04:54:07;;;;;;;29.02;26.00;;;;;;;3.21;75.45;98426.44;10420802;28;20045;-67
2020/12/06 04:59:08;;;;;;;44.60;34.72;;;;;;;3.34;77.49;98423.50;10418461;28;20136;-67
2020/12/06 05:04:13;;;;;;;52.53;38.80;;;;;;;4.44;78.85;98396.72;10421712;28;20045;-67
2020/12/06 05:09:15;;;;;;;31.42;27.85;;;;;;;5.42;75.93;98390.66;10418225;28;20405;-68
2020/12/06 05:14:17;;;;;;;28.88;23.65;;;;;;;5.95;74.46;98395.63;10419542;28;20056;-67
2020/12/06 05:19:18;;;;;;;24.33;22.30;;;;;;;6.20;73.16;98390.28;10417533;28;20052;-67
2020/12/06 05:24:19;;;;;;;23.15;21.05;;;;;;;6.49;71.88;98395.16;10417415;28;20049;-67
2020/12/06 05:29:20;;;;;;;23.00;20.75;;;;;;;6.86;71.17;98387.53;10418684;28;20228;-67
2020/12/06 05:34:22;;;;;;;21.27;19.60;;;;;;;6.93;71.06;98381.97;10419436;28;20124;-67
2020/12/06 05:39:23;;;;;;;21.13;19.33;;;;;;;7.09;70.46;98382.16;10417748;28;20045;-67
2020/12/06 05:44:24;;;;;;;24.42;20.13;;;;;;;7.12;70.50;98392.47;10418136;28;20068;-67
2020/12/06 05:49:25;;;;;;;19.73;18.13;;;;;;;7.40;69.47;98378.19;10417975;28;20415;-67
2020/12/06 05:54:27;;;;;;;19.75;18.25;;;;;;;7.34;69.66;98377.53;10415820;28;20045;-67
2020/12/06 05:59:31;;;;;;;20.23;18.30;;;;;;;7.59;68.81;98385.09;10419433;28;20515;-67
2020/12/06 06:04:40;;;;;;;20.27;18.42;;;;;;;7.53;68.93;98384.56;10418716;28;20107;-67
2020/12/06 06:09:42;;;;;;;19.83;17.98;;;;;;;7.33;69.29;98401.97;10434619;22;20233;-68
2020/12/06 06:14:45;;;;;;;20.85;19.00;;;;;;;7.21;69.72;98399.91;10424485;28;20053;-67
2020/12/06 06:19:47;;;;;;;19.38;17.77;;;;;;;7.45;69.31;98400.59;10420299;28;20065;-67
2020/12/06 06:24:49;;;;;;;19.52;17.90;;;;;;;7.43;68.86;98384.09;10423283;28;20056;-67
2020/12/06 06:29:51;;;;;;;19.50;18.02;;;;;;;7.54;68.99;98387.09;10418959;28;20041;-68
2020/12/06 06:34:52;;;;;;;19.65;18.15;;;;;;;7.56;68.90;98398.31;10418913;28;20045;-68
2020/12/06 06:40:00;;;;;;;20.17;18.45;;;;;;;7.69;68.52;98398.59;10420174;28;20092;-68
2020/12/06 06:45:11;;;;;;;20.17;18.75;;;;;;;7.48;69.21;98392.59;10406566;28;20490;-68
2020/12/06 06:50:12;;;;;;;18.65;17.17;;;;;;;7.75;68.38;98371.34;10418400;28;20048;-67
2020/12/06 06:55:13;;;;;;;17.85;16.45;;;;;;;7.80;68.25;98390.28;10421144;28;20132;-66
2020/12/06 07:00:15;;;;;;;18.80;17.08;;;;;;;7.94;67.94;98400.09;10416401;28;20387;-68
2020/12/06 07:05:16;;;;;;;18.27;16.88;;;;;;;8.03;67.43;98408.34;10416785;28;20046;-68
2020/12/06 07:10:25;;;;;;;18.55;17.05;;;;;;;8.13;67.15;98413.97;10444304;28;20060;-67
2020/12/06 07:15:27;;;;;;;17.33;15.95;;;;;;;8.03;67.20;98429.28;10427295;28;20124;-68
2020/12/06 07:20:29;;;;;;;17.75;16.25;;;;;;;8.12;67.00;98438.47;10426845;28;20053;-68
2020/12/06 07:25:31;;;;;;;16.45;15.15;;;;;;;8.16;66.95;98449.66;10425988;28;20095;-67
2020/12/06 07:30:32;;;;;;;16.35;14.90;;;;;;;8.26;66.70;98472.69;10428687;28;20049;-67
2020/12/06 07:35:33;;;;;;;17.33;15.93;;;;;;;8.52;65.65;98478.50;10422923;28;20051;-67
2020/12/06 07:40:35;;;;;;;16.83;15.55;;;;;;;8.43;65.85;98481.56;10421770;28;20513;-67
2020/12/06 07:45:36;;;;;;;16.20;15.00;;;;;;;8.56;65.54;98475.66;10424731;28;20460;-67
2020/12/06 07:50:44;;;;;;;15.85;14.65;;;;;;;8.41;66.07;98476.41;10426886;28;20045;-67
2020/12/06 07:55:45;;;;;;;16.02;14.73;;;;;;;8.53;65.83;98481.03;10425842;28;20045;-67
2020/12/06 08:00:47;;;;;;;15.57;14.38;;;;;;;8.69;65.12;98480.28;10429815;28;20466;-67
2020/12/06 08:05:48;;;;;;;15.52;14.40;;;;;;;8.66;65.35;98454.25;10427413;28;20525;-67
2020/12/06 08:10:51;;;;;;;17.40;16.10;;;;;;;8.81;64.86;98456.97;10428360;28;20045;-67
2020/12/06 08:15:53;;;;;;;16.08;14.70;;;;;;;8.78;64.97;98461.50;10428175;28;20056;-68
2020/12/06 08:20:56;;;;;;;16.15;14.85;;;;;;;8.86;64.50;98458.50;10426949;28;20060;-67
2020/12/06 08:25:58;;;;;;;15.30;14.20;;;;;;;8.92;64.33;98450.34;10427260;28;20045;-67
2020/12/06 08:31:19;;;;;;;14.45;13.35;;;;;;;8.88;64.59;98447.00;10432078;28;20045;-68
2020/12/06 08:36:24;;;;;;;15.48;14.38;;;;;;;9.13;63.76;98448.41;10433435;28;20498;-68
2020/12/06 08:41:27;;;;;;;15.43;14.23;;;;;;;9.15;63.76;98447.38;10432159;28;20422;-67
2020/12/06 08:46:30;;;;;;;15.57;14.18;;;;;;;9.18;63.85;98441.16;10430426;28;20060;-67
2020/12/06 08:51:38;;;;;;;15.35;14.15;;;;;;;9.40;63.17;98438.25;10425593;28;20053;-67
2020/12/06 08:56:42;;;;;;;14.32;13.27;;;;;;;9.37;63.09;98431.38;10424131;28;20061;-67
2020/12/06 09:01:51;;;;;;;15.05;13.50;;;;;;;9.35;63.23;98410.50;10421467;28;20130;-67
2020/12/06 09:06:54;;;;;;;14.98;13.88;;;;;;;9.29;63.31;98404.72;10418662;28;20045;-71
2020/12/06 09:11:56;;;;;;;14.95;13.85;;;;;;;9.30;63.36;98409.06;10418702;28;20135;-67
2020/12/06 09:16:57;;;;;;;14.63;13.38;;;;;;;9.35;63.00;98396.53;10418740;28;20052;-68
2020/12/06 09:21:59;;;;;;;14.15;12.88;;;;;;;9.44;62.60;98393.44;10417281;28;20415;-69
2020/12/06 09:27:00;;;;;;;14.88;13.68;;;;;;;9.28;63.28;98395.16;10418935;28;20108;-68
2020/12/06 09:32:01;;;;;;;13.90;12.50;;;;;;;9.59;62.37;98379.47;10418639;28;20037;-68
2020/12/06 09:37:02;;;;;;;14.23;13.13;;;;;;;9.93;61.48;98387.31;10414891;28;20047;-68
2020/12/06 09:42:03;;;;;;;12.98;11.88;;;;;;;9.91;61.30;98399.66;10420703;28;20077;-68
2020/12/06 09:47:04;;;;;;;12.63;11.43;;;;;;;10.11;60.78;98413.38;10419815;28;20038;-68
2020/12/06 09:52:05;;;;;;;12.15;11.25;;;;;;;10.17;60.80;98432.34;10417550;28;20053;-68
2020/12/06 09:57:07;;;;;;;12.45;11.55;;;;;;;10.17;60.92;98417.41;10418154;28;20044;-68
2020/12/06 10:02:08;;;;;;;12.68;11.57;;;;;;;10.33;60.09;98422.72;10417567;28;20042;-68
2020/12/06 10:07:09;;;;;;;12.48;11.43;;;;;;;10.36;60.18;98419.91;10417833;28;20514;-68
2020/12/06 10:12:10;;;;;;;11.73;10.82;;;;;;;10.47;59.75;98432.44;10417180;28;20426;-68
2020/12/06 10:17:12;;;;;;;10.77;9.95;;;;;;;10.58;59.67;98430.91;10418785;28;20135;-69
2020/12/06 10:22:14;;;;;;;11.43;10.63;;;;;;;10.82;58.84;98425.16;10424622;28;20048;-68
2020/12/06 10:27:15;;;;;;;11.32;10.07;;;;;;;10.78;58.78;98411.34;10422034;28;20068;-67
2020/12/06 10:32:16;;;;;;;11.18;10.00;;;;;;;10.86;58.67;98403.84;10420610;28;20105;-68
2020/12/06 10:37:17;;;;;;;12.40;9.65;;;;;;;10.92;58.85;98400.00;10421070;28;20543;-69
2020/12/06 10:42:21;;;;;;;10.80;9.98;;;;;;;11.10;58.09;98382.28;10418644;28;20077;-68
2020/12/06 10:47:22;;;;;;;11.15;10.30;;;;;;;11.21;58.10;98379.03;10419575;28;20099;-70
2020/12/06 10:52:23;;;;;;;10.15;9.30;;;;;;;11.45;57.25;98360.88;10428274;28;20054;-68
2020/12/06 10:57:24;;;;;;;10.10;9.20;;;;;;;11.44;57.28;98360.03;10429253;28;20037;-69
2020/12/06 11:02:26;;;;;;;11.70;10.65;;;;;;;11.32;57.71;98361.63;10428082;28;20053;-68
2020/12/06 11:07:29;;;;;;;10.55;9.65;;;;;;;11.28;57.73;98356.66;10428265;28;20049;-68
2020/12/06 11:12:31;;;;;;;10.52;9.63;;;;;;;11.32;57.98;98361.63;10427912;28;20045;-68
2020/12/06 11:17:32;;;;;;;10.30;9.52;;;;;;;11.36;57.54;98352.59;10428464;28;20049;-68
2020/12/06 11:22:33;;;;;;;10.55;9.65;;;;;;;11.48;57.72;98365.97;10429441;28;20072;-68
2020/12/06 11:27:34;;;;;;;9.40;8.68;;;;;;;11.66;57.01;98363.97;10427281;28;20480;-69
2020/12/06 11:32:36;;;;;;;9.43;8.63;;;;;;;11.58;57.41;98372.34;10429468;28;20395;-69
2020/12/06 11:37:37;;;;;;;9.73;8.93;;;;;;;11.48;57.35;98369.44;10427344;28;20045;-69
2020/12/06 11:42:38;;;;;;;9.70;8.90;;;;;;;11.59;57.27;98369.59;10425591;28;20403;-68
2020/12/06 11:47:40;;;;;;;11.95;9.10;;;;;;;11.54;57.52;98369.03;10423085;28;20132;-69
2020/12/06 11:52:43;;;;;;;9.55;8.63;;;;;;;11.48;57.87;98393.13;10422667;28;20499;-69
2020/12/06 11:57:44;;;;;;;9.80;9.02;;;;;;;11.49;58.15;98378.16;10422031;28;20042;-69
2020/12/06 12:02:46;;;;;;;10.52;8.45;;;;;;;11.53;57.76;98380.50;10421978;28;20049;-68
2020/12/06 12:07:47;;;;;;;10.30;9.50;;;;;;;11.43;58.19;98370.66;10423029;28;20030;-69
2020/12/06 12:12:48;;;;;;;9.25;8.45;;;;;;;11.38;58.41;98368.31;10436368;22;20056;-66
2020/12/06 12:17:51;;;;;;;9.32;8.63;;;;;;;11.36;58.49;98364.91;10422037;28;20136;-68
2020/12/06 12:22:52;;;;;;;9.43;8.73;;;;;;;11.42;58.26;98348.78;10421967;28;20053;-66
2020/12/06 12:27:54;;;;;;;9.70;8.77;;;;;;;11.60;57.85;98355.53;10420954;28;20132;-68
2020/12/06 12:32:56;;;;;;;9.73;8.93;;;;;;;11.49;58.02;98373.75;10420147;28;20050;-67
2020/12/06 12:37:57;;;;;;;9.50;8.75;;;;;;;11.57;57.83;98345.19;10421799;28;20491;-69
2020/12/06 12:42:58;;;;;;;9.35;8.68;;;;;;;11.43;58.00;98350.47;10421882;28;20046;-68
2020/12/06 12:47:59;;;;;;;9.68;8.85;;;;;;;11.40;58.42;98349.78;10419512;28;20045;-67
2020/12/06 12:53:00;;;;;;;9.25;8.45;;;;;;;11.43;58.12;98349.63;10419854;28;20049;-67
2020/12/06 12:58:02;;;;;;;10.38;9.57;;;;;;;11.25;58.37;98341.06;10419409;28;20376;-67
2020/12/06 13:03:04;;;;;;;10.25;9.35;;;;;;;11.46;58.11;98333.63;10417323;28;20045;-67
2020/12/06 13:08:05;;;;;;;9.98;9.25;;;;;;;11.39;58.38;98335.81;10419324;28;20128;-69
2020/12/06 13:13:06;;;;;;;10.65;9.85;;;;;;;11.18;58.88;98329.22;10417290;28;20069;-68
2020/12/06 13:18:07;;;;;;;10.65;9.80;;;;;;;11.20;59.08;98322.94;10419336;28;20037;-65
2020/12/06 13:23:08;;;;;;;11.07;10.13;;;;;;;10.80;59.76;98327.13;10419785;28;20069;-65
2020/12/06 13:28:09;;;;;;;11.50;10.73;;;;;;;10.59;60.62;98316.97;10420446;28;20121;-65
2020/12/06 13:33:11;;;;;;;11.98;11.13;;;;;;;10.49;61.13;98322.84;10419612;28;20045;-64
2020/12/06 13:38:12;;;;;;;10.98;10.20;;;;;;;10.41;61.26;98312.81;10417767;28;20136;-64
2020/12/06 13:43:13;;;;;;;11.40;10.50;;;;;;;10.33;61.51;98313.25;10419042;28;20037;-65
2020/12/06 13:48:14;;;;;;;11.18;10.38;;;;;;;10.10;62.22;98292.69;10418573;28;20037;-64
2020/12/06 13:53:15;;;;;;;13.05;12.00;;;;;;;10.26;62.26;98292.66;10418598;28;20060;-65
2020/12/06 13:58:16;;;;;;;13.07;11.98;;;;;;;10.78;60.91;98286.97;10416988;28;20049;-64
2020/12/06 14:03:17;;;;;;;11.13;10.43;;;;;;;10.75;61.03;98297.66;10416581;28;20049;-63
2020/12/06 14:08:21;;;;;;;13.65;12.57;;;;;;;11.03;60.34;98308.19;10416985;28;20037;-63
2020/12/06 14:13:22;;;;;;;12.13;11.27;;;;;;;10.74;61.18;98295.97;10416892;28;20479;-63
2020/12/06 14:18:23;;;;;;;11.27;10.55;;;;;;;11.02;60.54;98293.38;10416128;28;20045;-64
2020/12/06 14:23:24;;;;;;;11.80;10.98;;;;;;;11.06;60.22;98309.78;10416390;28;20045;-65
2020/12/06 14:28:25;;;;;;;12.32;11.45;;;;;;;11.03;60.42;98318.72;10416305;28;20045;-65
2020/12/06 14:33:26;;;;;;;12.93;12.02;;;;;;;11.02;60.29;98332.81;10417122;28;20069;-62
2020/12/06 14:38:27;;;;;;;12.55;11.63;;;;;;;10.81;60.99;98334.94;10397866;28;20046;-64
2020/12/06 14:43:31;;;;;;;11.88;10.98;;;;;;;11.03;60.28;98337.13;10416384;28;20054;-64
2020/12/06 14:48:33;;;;;;;11.85;11.05;;;;;;;10.93;60.60;98343.00;10415444;28;20115;-64
2020/12/06 14:53:34;;;;;;;12.75;11.85;;;;;;;10.92;60.60;98350.06;10415960;28;20414;-63
2020/12/06 14:58:36;;;;;;;12.60;11.35;;;;;;;11.15;59.86;98345.19;10416174;28;20418;-64
2020/12/06 15:03:37;;;;;;;11.52;10.73;;;;;;;10.88;60.68;98361.69;10417683;28;20371;-64
2020/12/06 15:08:39;;;;;;;11.30;10.48;;;;;;;10.44;61.75;98365.13;10414609;28;20049;-65
2020/12/06 15:13:40;;;;;;;12.85;11.68;;;;;;;10.68;61.23;98360.25;10415725;28;20116;-65
2020/12/06 15:18:48;;;;;;;11.95;11.15;;;;;;;10.33;62.04;98368.41;10417406;28;20091;-64
2020/12/06 15:23:49;;;;;;;11.30;10.38;;;;;;;10.40;61.78;98353.13;10416098;28;20052;-64
2020/12/06 15:28:51;;;;;;;11.25;10.45;;;;;;;10.44;61.75;98351.16;10415786;28;20052;-63
2020/12/06 15:33:52;;;;;;;11.10;10.32;;;;;;;10.70;61.11;98361.00;10417709;28;20053;-65
2020/12/06 15:38:53;;;;;;;10.82;9.95;;;;;;;10.29;61.62;98356.38;10423192;28;20037;-64
2020/12/06 15:43:55;;;;;;;10.13;9.40;;;;;;;10.69;60.40;98356.69;10424167;28;20495;-64
2020/12/06 15:48:56;;;;;;;9.30;8.60;;;;;;;10.99;59.64;98361.06;10422518;28;20048;-64
2020/12/06 15:53:57;;;;;;;10.10;9.35;;;;;;;11.19;59.11;98378.25;10423324;28;20053;-65
2020/12/06 15:58:58;;;;;;;10.50;9.77;;;;;;;11.11;59.37;98378.72;10421630;28;20053;-63
2020/12/06 16:04:00;;;;;;;10.90;9.95;;;;;;;10.93;59.85;98393.81;10421088;28;20466;-64
2020/12/06 16:09:04;;;;;;;10.98;10.18;;;;;;;10.88;59.97;98409.00;10421826;28;20033;-64
2020/12/06 16:14:05;;;;;;;10.63;9.82;;;;;;;10.88;59.97;98406.38;10421744;28;20083;-64
2020/12/06 16:19:07;;;;;;;11.40;10.60;;;;;;;10.70;60.37;98402.19;10422981;28;20052;-64
2020/12/06 16:24:08;;;;;;;11.75;10.95;;;;;;;10.51;61.01;98402.44;10423520;28;20049;-64
2020/12/06 16:29:09;;;;;;;12.23;11.23;;;;;;;10.60;60.67;98394.84;10424959;28;20442;-64
2020/12/06 16:34:10;;;;;;;13.02;12.13;;;;;;;10.59;60.77;98397.59;10425220;28;20391;-63
2020/12/06 16:39:11;;;;;;;12.55;11.75;;;;;;;10.53;60.93;98383.00;10420754;28;20124;-65
2020/12/06 16:44:12;;;;;;;14.77;13.35;;;;;;;10.42;61.07;98376.69;10421042;28;20060;-64
2020/12/06 16:49:14;;;;;;;13.13;12.23;;;;;;;10.25;61.64;98382.91;10420998;28;20495;-64
2020/12/06 16:54:15;;;;;;;12.23;11.43;;;;;;;10.23;61.71;98379.50;10421371;28;20049;-64
2020/12/06 16:59:16;;;;;;;14.27;13.27;;;;;;;10.09;62.01;98378.50;10432770;28;20079;-65
2020/12/06 17:04:17;;;;;;;13.25;12.25;;;;;;;10.20;61.73;98371.78;10419646;28;20101;-65
2020/12/06 17:09:25;;;;;;;14.40;13.50;;;;;;;9.99;62.20;98361.53;10419181;28;20487;-65
2020/12/06 17:14:27;;;;;;;13.00;12.05;;;;;;;10.02;62.13;98371.88;10417860;28;20049;-65
2020/12/06 17:19:28;;;;;;;13.65;12.75;;;;;;;9.99;62.23;98373.81;10418610;28;20037;-65
2020/12/06 17:24:31;;;;;;;13.88;12.88;;;;;;;9.92;62.45;98375.13;10419194;28;20472;-65
2020/12/06 17:29:32;;;;;;;14.93;13.73;;;;;;;9.76;62.69;98372.47;10419964;28;20510;-64
2020/12/06 17:34:34;;;;;;;13.57;12.60;;;;;;;9.94;62.33;98371.47;10419164;28;20050;-66
2020/12/06 17:39:35;;;;;;;15.07;13.85;;;;;;;9.81;62.65;98376.53;10420586;28;20084;-64
2020/12/06 17:44:39;;;;;;;15.25;14.18;;;;;;;9.69;63.00;98377.19;10420214;28;20088;-66
2020/12/06 17:49:40;;;;;;;14.88;13.95;;;;;;;9.67;62.97;98376.44;10420338;28;20461;-65
2020/12/06 17:54:41;;;;;;;14.07;13.07;;;;;;;9.57;63.16;98370.03;10420050;28;20068;-65
2020/12/06 17:59:43;;;;;;;14.80;13.68;;;;;;;9.38;63.41;98366.66;10418159;28;20045;-65
2020/12/06 18:04:44;;;;;;;14.88;13.77;;;;;;;9.14;64.40;98374.06;10418299;28;20056;-68
2020/12/06 18:09:46;;;;;;;16.60;15.50;;;;;;;9.39;63.49;98369.22;10418608;28;20072;-66
2020/12/06 18:14:47;;;;;;;15.95;14.85;;;;;;;9.35;63.72;98376.41;10418011;28;20147;-64
2020/12/06 18:19:48;;;;;;;14.52;13.45;;;;;;;9.51;63.32;98363.31;10418109;28;20046;-62
2020/12/06 18:24:49;;;;;;;15.07;14.07;;;;;;;9.49;63.35;98351.22;10418299;28;20041;-64
2020/12/06 18:29:50;;;;;;;14.82;13.93;;;;;;;9.53;63.23;98360.63;10419180;28;20503;-64
2020/12/06 18:34:51;;;;;;;13.57;12.57;;;;;;;9.40;63.69;98351.72;10418573;28;20046;-64
2020/12/06 18:39:53;;;;;;;15.75;14.65;;;;;;;9.43;63.70;98359.41;10419894;28;20042;-65
2020/12/06 18:44:54;;;;;;;14.32;13.23;;;;;;;9.28;64.08;98361.91;10418056;28;20051;-65
2020/12/06 18:49:55;;;;;;;13.95;13.05;;;;;;;9.49;63.41;98356.47;10417202;28;20038;-65
2020/12/06 18:54:56;;;;;;;14.98;13.98;;;;;;;9.27;63.88;98356.78;10416089;28;20132;-65
2020/12/06 18:59:57;;;;;;;15.00;13.63;;;;;;;9.39;63.59;98356.13;10417956;28;20388;-65
2020/12/06 19:04:58;;;;;;;15.35;14.07;;;;;;;9.46;63.42;98348.75;10417504;28;20049;-64
2020/12/06 19:10:00;;;;;;;13.88;12.98;;;;;;;9.40;63.50;98343.84;10419169;28;20065;-62
2020/12/06 19:15:02;;;;;;;14.02;13.10;;;;;;;9.27;63.92;98341.03;10426310;28;20061;-65
2020/12/06 19:20:04;;;;;;;14.55;13.65;;;;;;;9.32;63.86;98326.75;10425107;28;20037;-65
2020/12/06 19:25:05;;;;;;;14.23;13.15;;;;;;;9.21;64.05;98343.97;10427039;28;20132;-64
2020/12/06 19:30:09;;;;;;;14.07;13.18;;;;;;;9.36;63.76;98335.31;10426621;28;20402;-65
2020/12/06 19:35:17;;;;;;;13.57;12.57;;;;;;;9.42;63.32;98334.94;10426076;28;20046;-66
2020/12/06 19:40:18;;;;;;;13.40;12.60;;;;;;;9.37;63.56;98330.91;10426133;28;20096;-63
2020/12/06 19:45:19;;;;;;;14.13;13.13;;;;;;;9.43;63.19;98323.56;10425473;28;20077;-66
2020/12/06 19:50:21;;;;;;;14.80;13.07;;;;;;;9.33;63.65;98315.31;10425669;28;20067;-67
2020/12/06 19:55:22;;;;;;;13.63;12.63;;;;;;;9.42;63.39;98308.72;10424397;28;20046;-66
2020/12/06 20:00:26;;;;;;;14.43;13.00;;;;;;;9.41;63.28;98296.56;10424754;28;20406;-65
2020/12/06 20:05:31;;;;;;;12.80;11.90;;;;;;;9.28;63.47;98278.03;10423035;28;20096;-66
2020/12/06 20:10:32;;;;;;;13.45;12.43;;;;;;;9.34;63.29;98268.97;10423329;28;20061;-65
2020/12/06 20:15:33;;;;;;;13.60;12.70;;;;;;;9.18;63.79;98255.03;10422147;28;20045;-65
2020/12/06 20:20:34;;;;;;;13.35;12.23;;;;;;;9.28;63.34;98238.69;10425118;28;20164;-66
2020/12/06 20:25:45;;;;;;;13.27;12.25;;;;;;;9.28;63.28;98238.69;10423199;28;20061;-65
2020/12/06 20:30:46;;;;;;;12.65;11.75;;;;;;;9.42;62.96;98211.69;10422475;28;20099;-64
2020/12/06 20:35:47;;;;;;;11.45;10.55;;;;;;;9.52;62.60;98226.00;10421678;28;20045;-64
2020/12/06 20:40:48;;;;;;;12.23;11.32;;;;;;;9.48;62.81;98224.50;10420611;28;20117;-65
2020/12/06 20:45:51;;;;;;;12.38;11.32;;;;;;;9.41;62.91;98232.78;10422922;28;20460;-65
2020/12/06 20:50:52;;;;;;;10.88;9.88;;;;;;;9.53;62.51;98242.59;10422019;28;20064;-65
2020/12/06 20:55:57;;;;;;;9.63;8.93;;;;;;;9.59;62.43;98236.97;10421789;28;20049;-64
2020/12/06 21:00:58;;;;;;;10.60;9.80;;;;;;;9.47;62.89;98224.56;10421377;28;20038;-63
2020/12/06 21:05:59;;;;;;;9.13;8.52;;;;;;;9.54;62.50;98223.28;10421809;28;20045;-65
2020/12/06 21:11:01;;;;;;;9.73;9.02;;;;;;;9.59;62.22;98222.09;10420506;28;20068;-65
2020/12/06 21:16:02;;;;;;;9.52;8.82;;;;;;;9.57;62.33;98242.31;10420734;28;20045;-64
2020/12/06 21:21:04;;;;;;;9.52;8.73;;;;;;;9.64;62.10;98248.06;10420767;28;20388;-64
2020/12/06 21:26:08;;;;;;;10.98;9.02;;;;;;;9.65;62.08;98243.66;10420340;28;20572;-63
2020/12/06 21:31:12;;;;;;;9.52;8.73;;;;;;;9.75;61.76;98247.47;10420392;28;20041;-67
2020/12/06 21:36:13;;;;;;;9.68;8.88;;;;;;;9.62;62.20;98247.31;10419121;28;20495;-64
2020/12/06 21:41:20;;;;;;;9.00;8.30;;;;;;;9.67;61.83;98247.06;10420127;28;20434;-63
2020/12/06 21:46:22;;;;;;;9.13;8.43;;;;;;;9.51;62.42;98247.06;10420765;28;20045;-64
2020/12/06 21:51:30;;;;;;;9.10;8.48;;;;;;;9.53;62.36;98253.91;10420662;28;20049;-65
2020/12/06 21:56:38;;;;;;;8.82;8.10;;;;;;;9.51;62.17;98247.91;10419721;28;20053;-63
2020/12/06 22:01:39;;;;;;;8.35;7.65;;;;;;;9.51;62.36;98244.44;10418908;28;20041;-64
2020/12/06 22:06:41;;;;;;;9.02;8.27;;;;;;;9.74;61.56;98245.75;10419382;28;20041;-64
2020/12/06 22:11:43;;;;;;;8.65;7.88;;;;;;;9.65;61.87;98217.41;10419518;28;20049;-63
2020/12/06 22:16:45;;;;;;;8.70;8.10;;;;;;;9.52;62.31;98235.66;10419581;28;20095;-65
2020/12/06 22:21:46;;;;;;;8.18;7.57;;;;;;;9.60;62.00;98204.56;10418522;28;20056;-65
2020/12/06 22:26:47;;;;;;;8.25;7.47;;;;;;;9.91;60.79;98208.06;10419046;28;20052;-64
2020/12/06 22:31:49;;;;;;;8.30;7.57;;;;;;;9.83;60.93;98203.28;10418343;28;20132;-64
2020/12/06 22:36:55;;;;;;;9.70;7.68;;;;;;;9.71;61.22;98210.06;10418150;28;20561;-65
2020/12/06 22:41:57;;;;;;;8.15;6.95;;;;;;;9.82;60.79;98212.06;10420083;28;20087;-64
2020/12/06 22:47:01;;;;;;;7.35;6.63;;;;;;;9.83;60.88;98219.03;10430166;28;20037;-64
2020/12/06 22:52:05;;;;;;;8.00;7.30;;;;;;;9.87;60.50;98210.00;10434349;28;20406;-65
2020/12/06 22:57:07;;;;;;;9.20;7.22;;;;;;;9.86;60.59;98209.16;10415259;28;20051;-64
2020/12/06 23:02:08;;;;;;;8.50;7.70;;;;;;;9.99;59.95;98216.34;10431264;28;20172;-64
2020/12/06 23:07:09;;;;;;;8.02;7.07;;;;;;;9.89;60.39;98212.56;10430499;28;20073;-64